Natures Way Challenger — WDF7294 — position and weather

sailwx.info

Track history (hours):
 
Tides and Currents Weather Stations Pressure Air Temp Water Temp Dewpoint Dewpoint Depression Visibility Wind Speed Wind Dir Waves Ship Positions

Natures Way Challenger

Owner: Natures Way Marine, LLC, Theodore, AL. More information available from US FCC via Universal Licensing System and Coast Guard Vessel Documentation Center.

Last reported at 2015-Jun-26 12:33 UTC. Time now 2015-Jul-05 17:28 UTC.
Position N 29°35' W 094°56'.
Warning: this ship's position is 9 days out of date.

Length 14 m.

Type: Towing. MMSI: 367483050.

Date/timePositionNaut miles runAvg speedWind from/ knotsBaromVisibWave heightAir tempDewpointWater temp
2015-Jun-26 12:33N 29°35' W 094°56'7 7.3
2015-Jun-26 11:33N 29°42' W 094°60'7 1.6
2015-Jun-26 07:30N 29°47' W 095°05'3 3.3
2015-Jun-26 06:31N 29°44' W 095°02'0 0.3
2015-Jun-26 05:33N 29°44' W 095°02'6 5.8
2015-Jun-26 04:34N 29°39' W 094°58'8 7.7
2015-Jun-26 03:34N 29°32' W 094°54'  
2015-Jun-21 01:33N 30°25' W 091°19'3 3.1
2015-Jun-21 00:27N 30°26' W 091°15'3 2.7
2015-Jun-20 23:32N 30°26' W 091°13'1 0.6
2015-Jun-20 22:34N 30°25' W 091°12'1 1.2
2015-Jun-20 21:34N 30°24' W 091°13'0 0.1
2015-Jun-20 20:34N 30°24' W 091°13'0 0.0
2015-Jun-20 19:33N 30°24' W 091°13'0 0.0
2015-Jun-20 18:33N 30°24' W 091°13'3 3.2
2015-Jun-20 17:34N 30°27' W 091°12'4 4.4
2015-Jun-20 16:34N 30°31' W 091°14'1 1.3
2015-Jun-20 15:34N 30°31' W 091°13'2 1.8
2015-Jun-20 14:33N 30°30' W 091°12'2 1.5
2015-Jun-20 13:34N 30°28' W 091°12'1 1.5
2015-Jun-20 12:33N 30°27' W 091°12'1 1.2
2015-Jun-20 11:33N 30°26' W 091°12'1 0.9
2015-Jun-20 10:34N 30°26' W 091°13'0 0.5
2015-Jun-20 09:33N 30°26' W 091°13'2 1.6
2015-Jun-20 08:34N 30°26' W 091°15'4 3.7
2015-Jun-20 07:33N 30°25' W 091°19'  
Track history (hours):
 
Tides and Currents Weather Stations Pressure Air Temp Water Temp Dewpoint Dewpoint Depression Visibility Wind Speed Wind Dir Waves Ship Positions

Natures Way Challenger

Owner: Natures Way Marine, LLC, Theodore, AL. More information available from US FCC via Universal Licensing System and Coast Guard Vessel Documentation Center.

Last reported at 2015-Jun-26 12:33 UTC. Time now 2015-Jul-05 17:28 UTC.
Position N 29°35' W 094°56'.
Warning: this ship's position is 9 days out of date.

Length 14 m.

Type: Towing. MMSI: 367483050.

Date/timePositionNaut miles runAvg speedWind from/ knotsBaromVisibWave heightAir tempDewpointWater temp
2015-Jun-26 12:33N 29°35' W 094°56'7 7.3
2015-Jun-26 11:33N 29°42' W 094°60'7 1.6
2015-Jun-26 07:30N 29°47' W 095°05'3 3.3
2015-Jun-26 06:31N 29°44' W 095°02'0 0.3
2015-Jun-26 05:33N 29°44' W 095°02'6 5.8
2015-Jun-26 04:34N 29°39' W 094°58'8 7.7
2015-Jun-26 03:34N 29°32' W 094°54'  
2015-Jun-21 01:33N 30°25' W 091°19'3 3.1
2015-Jun-21 00:27N 30°26' W 091°15'3 2.7
2015-Jun-20 23:32N 30°26' W 091°13'1 0.6
2015-Jun-20 22:34N 30°25' W 091°12'1 1.2
2015-Jun-20 21:34N 30°24' W 091°13'0 0.1
2015-Jun-20 20:34N 30°24' W 091°13'0 0.0
2015-Jun-20 19:33N 30°24' W 091°13'0 0.0
2015-Jun-20 18:33N 30°24' W 091°13'3 3.2
2015-Jun-20 17:34N 30°27' W 091°12'4 4.4
2015-Jun-20 16:34N 30°31' W 091°14'1 1.3
2015-Jun-20 15:34N 30°31' W 091°13'2 1.8
2015-Jun-20 14:33N 30°30' W 091°12'2 1.5
2015-Jun-20 13:34N 30°28' W 091°12'1 1.5
2015-Jun-20 12:33N 30°27' W 091°12'1 1.2
2015-Jun-20 11:33N 30°26' W 091°12'1 0.9
2015-Jun-20 10:34N 30°26' W 091°13'0 0.5
2015-Jun-20 09:33N 30°26' W 091°13'2 1.6
2015-Jun-20 08:34N 30°26' W 091°15'4 3.7
2015-Jun-20 07:33N 30°25' W 091°19'  

Dump ship's entire track history